sensor_id;sensor_type;location;lat;lon;timestamp;P1;durP1;ratioP1;P2;durP2;ratioP2
47239;SDS011;32978;53.586;10.052;2023-07-13T00:02:36;9.65;;;8.75;;
47239;SDS011;32978;53.586;10.052;2023-07-13T00:07:36;10.02;;;9.15;;
47239;SDS011;32978;53.586;10.052;2023-07-13T00:12:37;9.60;;;8.80;;
47239;SDS011;32978;53.586;10.052;2023-07-13T00:17:36;9.70;;;8.85;;
47239;SDS011;32978;53.586;10.052;2023-07-13T00:22:37;9.07;;;8.30;;
47239;SDS011;32978;53.586;10.052;2023-07-13T00:27:34;10.30;;;9.30;;
47239;SDS011;32978;53.586;10.052;2023-07-13T00:32:33;9.35;;;8.65;;
47239;SDS011;32978;53.586;10.052;2023-07-13T00:37:30;9.95;;;9.13;;
47239;SDS011;32978;53.586;10.052;2023-07-13T00:42:32;10.20;;;9.25;;
47239;SDS011;32978;53.586;10.052;2023-07-13T00:47:34;10.03;;;9.23;;
47239;SDS011;32978;53.586;10.052;2023-07-13T00:52:31;10.75;;;9.85;;
47239;SDS011;32978;53.586;10.052;2023-07-13T01:02:35;11.45;;;10.45;;
47239;SDS011;32978;53.586;10.052;2023-07-13T01:07:34;10.82;;;9.93;;
47239;SDS011;32978;53.586;10.052;2023-07-13T01:12:31;14.50;;;10.85;;
47239;SDS011;32978;53.586;10.052;2023-07-13T01:17:33;11.77;;;10.70;;
47239;SDS011;32978;53.586;10.052;2023-07-13T01:22:30;11.77;;;10.73;;
47239;SDS011;32978;53.586;10.052;2023-07-13T01:27:31;11.68;;;10.68;;
47239;SDS011;32978;53.586;10.052;2023-07-13T01:32:30;10.95;;;9.95;;
47239;SDS011;32978;53.586;10.052;2023-07-13T01:37:32;10.60;;;9.82;;
47239;SDS011;32978;53.586;10.052;2023-07-13T01:42:40;10.73;;;9.88;;
47239;SDS011;32978;53.586;10.052;2023-07-13T01:47:44;10.55;;;9.85;;
47239;SDS011;32978;53.586;10.052;2023-07-13T01:52:46;10.88;;;9.98;;
47239;SDS011;32978;53.586;10.052;2023-07-13T01:57:46;11.13;;;10.23;;
47239;SDS011;32978;53.586;10.052;2023-07-13T02:02:48;12.27;;;11.13;;
47239;SDS011;32978;53.586;10.052;2023-07-13T02:12:48;12.63;;;11.40;;
47239;SDS011;32978;53.586;10.052;2023-07-13T02:17:48;12.15;;;11.20;;
47239;SDS011;32978;53.586;10.052;2023-07-13T02:22:47;12.25;;;11.02;;
47239;SDS011;32978;53.586;10.052;2023-07-13T02:27:45;12.63;;;11.50;;
47239;SDS011;32978;53.586;10.052;2023-07-13T02:32:45;12.07;;;11.07;;
47239;SDS011;32978;53.586;10.052;2023-07-13T02:37:53;12.30;;;11.30;;
47239;SDS011;32978;53.586;10.052;2023-07-13T02:42:53;13.15;;;11.75;;
47239;SDS011;32978;53.586;10.052;2023-07-13T02:47:49;12.98;;;11.85;;
47239;SDS011;32978;53.586;10.052;2023-07-13T02:52:46;13.98;;;12.65;;
47239;SDS011;32978;53.586;10.052;2023-07-13T02:57:46;13.07;;;11.95;;
47239;SDS011;32978;53.586;10.052;2023-07-13T03:02:47;14.10;;;12.73;;
47239;SDS011;32978;53.586;10.052;2023-07-13T03:07:49;13.73;;;12.32;;
47239;SDS011;32978;53.586;10.052;2023-07-13T03:12:46;12.88;;;11.88;;
47239;SDS011;32978;53.586;10.052;2023-07-13T03:17:43;14.65;;;13.45;;
47239;SDS011;32978;53.586;10.052;2023-07-13T03:22:42;12.85;;;11.88;;
47239;SDS011;32978;53.586;10.052;2023-07-13T03:27:41;13.60;;;12.43;;
47239;SDS011;32978;53.586;10.052;2023-07-13T03:32:45;12.82;;;11.43;;
47239;SDS011;32978;53.586;10.052;2023-07-13T03:37:44;12.13;;;11.27;;
47239;SDS011;32978;53.586;10.052;2023-07-13T03:42:49;12.93;;;11.82;;
47239;SDS011;32978;53.586;10.052;2023-07-13T03:47:49;12.93;;;11.82;;
47239;SDS011;32978;53.586;10.052;2023-07-13T03:52:46;12.68;;;11.65;;
47239;SDS011;32978;53.586;10.052;2023-07-13T03:57:48;12.50;;;11.38;;
47239;SDS011;32978;53.586;10.052;2023-07-13T04:02:45;12.50;;;11.23;;
47239;SDS011;32978;53.586;10.052;2023-07-13T04:07:44;13.48;;;12.23;;
47239;SDS011;32978;53.586;10.052;2023-07-13T04:12:41;11.45;;;10.15;;
47239;SDS011;32978;53.586;10.052;2023-07-13T04:17:39;11.30;;;9.93;;
47239;SDS011;32978;53.586;10.052;2023-07-13T04:22:41;11.85;;;9.98;;
47239;SDS011;32978;53.586;10.052;2023-07-13T04:27:41;9.00;;;8.10;;
47239;SDS011;32978;53.586;10.052;2023-07-13T04:32:40;9.18;;;8.38;;
47239;SDS011;32978;53.586;10.052;2023-07-13T04:37:38;9.63;;;8.73;;
47239;SDS011;32978;53.586;10.052;2023-07-13T04:42:38;12.52;;;9.85;;
47239;SDS011;32978;53.586;10.052;2023-07-13T04:47:36;10.90;;;8.75;;
47239;SDS011;32978;53.586;10.052;2023-07-13T04:52:36;11.00;;;9.68;;
47239;SDS011;32978;53.586;10.052;2023-07-13T04:57:38;9.85;;;8.68;;
47239;SDS011;32978;53.586;10.052;2023-07-13T05:02:37;13.05;;;9.25;;
47239;SDS011;32978;53.586;10.052;2023-07-13T05:07:35;12.70;;;8.38;;
47239;SDS011;32978;53.586;10.052;2023-07-13T05:12:37;13.38;;;8.80;;
47239;SDS011;32978;53.586;10.052;2023-07-13T05:17:40;9.98;;;8.73;;
47239;SDS011;32978;53.586;10.052;2023-07-13T05:22:39;14.45;;;8.48;;
47239;SDS011;32978;53.586;10.052;2023-07-13T05:27:38;11.18;;;8.85;;
47239;SDS011;32978;53.586;10.052;2023-07-13T05:32:39;11.13;;;9.30;;
47239;SDS011;32978;53.586;10.052;2023-07-13T05:37:38;16.63;;;9.55;;
47239;SDS011;32978;53.586;10.052;2023-07-13T05:42:35;16.85;;;10.43;;
47239;SDS011;32978;53.586;10.052;2023-07-13T05:47:37;15.18;;;9.85;;
47239;SDS011;32978;53.586;10.052;2023-07-13T05:52:37;15.65;;;9.85;;
47239;SDS011;32978;53.586;10.052;2023-07-13T05:57:34;18.10;;;10.18;;
47239;SDS011;32978;53.586;10.052;2023-07-13T06:02:35;15.68;;;10.48;;
47239;SDS011;32978;53.586;10.052;2023-07-13T06:07:35;12.45;;;10.00;;
47239;SDS011;32978;53.586;10.052;2023-07-13T06:12:32;18.58;;;10.60;;
47239;SDS011;32978;53.586;10.052;2023-07-13T06:17:38;11.85;;;8.90;;
47239;SDS011;32978;53.586;10.052;2023-07-13T06:22:35;18.02;;;10.43;;
47239;SDS011;32978;53.586;10.052;2023-07-13T06:27:32;10.30;;;8.23;;
47239;SDS011;32978;53.586;10.052;2023-07-13T06:32:32;16.30;;;8.68;;
47239;SDS011;32978;53.586;10.052;2023-07-13T06:37:36;13.82;;;9.02;;
47239;SDS011;32978;53.586;10.052;2023-07-13T06:42:36;10.70;;;9.07;;
47239;SDS011;32978;53.586;10.052;2023-07-13T06:47:36;10.57;;;8.48;;
47239;SDS011;32978;53.586;10.052;2023-07-13T06:52:40;12.05;;;8.60;;
47239;SDS011;32978;53.586;10.052;2023-07-13T06:57:45;10.88;;;8.57;;
47239;SDS011;32978;53.586;10.052;2023-07-13T07:02:41;11.90;;;8.88;;
47239;SDS011;32978;53.586;10.052;2023-07-13T07:07:39;14.43;;;9.70;;
47239;SDS011;32978;53.586;10.052;2023-07-13T07:12:48;15.55;;;8.63;;
47239;SDS011;32978;53.586;10.052;2023-07-13T07:17:47;13.30;;;9.20;;
47239;SDS011;32978;53.586;10.052;2023-07-13T07:22:46;12.45;;;9.20;;
47239;SDS011;32978;53.586;10.052;2023-07-13T07:27:45;15.00;;;9.18;;
47239;SDS011;32978;53.586;10.052;2023-07-13T07:32:45;12.80;;;8.60;;
47239;SDS011;32978;53.586;10.052;2023-07-13T07:37:55;13.52;;;9.10;;
47239;SDS011;32978;53.586;10.052;2023-07-13T07:43:20;11.35;;;8.45;;
47239;SDS011;32978;53.586;10.052;2023-07-13T07:48:17;14.55;;;9.13;;
47239;SDS011;32978;53.586;10.052;2023-07-13T07:53:16;12.48;;;8.10;;
47239;SDS011;32978;53.586;10.052;2023-07-13T07:58:13;11.68;;;8.70;;
47239;SDS011;32978;53.586;10.052;2023-07-13T08:03:30;11.48;;;8.93;;
47239;SDS011;32978;53.586;10.052;2023-07-13T08:08:48;11.55;;;8.95;;
47239;SDS011;32978;53.586;10.052;2023-07-13T08:13:47;12.82;;;9.05;;
47239;SDS011;32978;53.586;10.052;2023-07-13T08:18:52;16.95;;;8.38;;
47239;SDS011;32978;53.586;10.052;2023-07-13T08:23:52;14.70;;;9.10;;
47239;SDS011;32978;53.586;10.052;2023-07-13T08:28:55;9.85;;;8.82;;
47239;SDS011;32978;53.586;10.052;2023-07-13T08:34:01;13.98;;;8.18;;
47239;SDS011;32978;53.586;10.052;2023-07-13T08:39:03;12.48;;;8.10;;
47239;SDS011;32978;53.586;10.052;2023-07-13T08:44:03;11.23;;;7.93;;
47239;SDS011;32978;53.586;10.052;2023-07-13T08:49:15;12.82;;;8.70;;
47239;SDS011;32978;53.586;10.052;2023-07-13T08:59:25;16.47;;;8.40;;
47239;SDS011;32978;53.586;10.052;2023-07-13T09:04:35;10.05;;;8.27;;
47239;SDS011;32978;53.586;10.052;2023-07-13T09:09:45;17.80;;;8.10;;
47239;SDS011;32978;53.586;10.052;2023-07-13T09:14:50;12.68;;;7.22;;
47239;SDS011;32978;53.586;10.052;2023-07-13T09:19:50;10.13;;;7.63;;
47239;SDS011;32978;53.586;10.052;2023-07-13T09:25:05;9.82;;;8.57;;
47239;SDS011;32978;53.586;10.052;2023-07-13T09:35:19;12.68;;;8.45;;
47239;SDS011;32978;53.586;10.052;2023-07-13T09:45:41;8.98;;;8.25;;
47239;SDS011;32978;53.586;10.052;2023-07-13T09:50:44;10.95;;;8.65;;
47239;SDS011;32978;53.586;10.052;2023-07-13T09:55:44;9.77;;;8.77;;
47239;SDS011;32978;53.586;10.052;2023-07-13T10:01:03;10.27;;;8.90;;
47239;SDS011;32978;53.586;10.052;2023-07-13T10:06:14;10.68;;;8.20;;
47239;SDS011;32978;53.586;10.052;2023-07-13T10:11:35;10.13;;;8.52;;
47239;SDS011;32978;53.586;10.052;2023-07-13T10:16:31;9.93;;;8.93;;
47239;SDS011;32978;53.586;10.052;2023-07-13T10:21:34;10.87;;;9.00;;
47239;SDS011;32978;53.586;10.052;2023-07-13T10:26:36;9.77;;;8.73;;
47239;SDS011;32978;53.586;10.052;2023-07-13T10:31:41;8.88;;;7.72;;
47239;SDS011;32978;53.586;10.052;2023-07-13T10:36:43;9.15;;;8.25;;
47239;SDS011;32978;53.586;10.052;2023-07-13T10:41:45;8.68;;;7.78;;
47239;SDS011;32978;53.586;10.052;2023-07-13T10:46:46;11.05;;;8.25;;
47239;SDS011;32978;53.586;10.052;2023-07-13T10:51:49;9.20;;;8.27;;
47239;SDS011;32978;53.586;10.052;2023-07-13T10:56:52;9.77;;;7.47;;
47239;SDS011;32978;53.586;10.052;2023-07-13T11:01:55;8.18;;;7.15;;
47239;SDS011;32978;53.586;10.052;2023-07-13T11:06:59;8.98;;;7.78;;
47239;SDS011;32978;53.586;10.052;2023-07-13T11:12:04;9.63;;;7.60;;
47239;SDS011;32978;53.586;10.052;2023-07-13T11:33:20;8.25;;;7.40;;
47239;SDS011;32978;53.586;10.052;2023-07-13T11:38:21;7.90;;;7.03;;
47239;SDS011;32978;53.586;10.052;2023-07-13T11:43:23;9.52;;;7.20;;
47239;SDS011;32978;53.586;10.052;2023-07-13T11:48:26;10.45;;;7.10;;
47239;SDS011;32978;53.586;10.052;2023-07-13T11:53:26;8.57;;;7.22;;
47239;SDS011;32978;53.586;10.052;2023-07-13T11:58:28;10.90;;;9.02;;
47239;SDS011;32978;53.586;10.052;2023-07-13T12:03:28;9.27;;;6.85;;
47239;SDS011;32978;53.586;10.052;2023-07-13T12:08:26;8.05;;;7.25;;
47239;SDS011;32978;53.586;10.052;2023-07-13T12:13:26;11.60;;;7.05;;
47239;SDS011;32978;53.586;10.052;2023-07-13T12:18:30;8.23;;;6.68;;
47239;SDS011;32978;53.586;10.052;2023-07-13T12:23:31;13.18;;;7.55;;
47239;SDS011;32978;53.586;10.052;2023-07-13T12:28:33;12.82;;;10.27;;
47239;SDS011;32978;53.586;10.052;2023-07-13T12:33:39;12.18;;;9.50;;
47239;SDS011;32978;53.586;10.052;2023-07-13T12:38:38;10.75;;;9.45;;
47239;SDS011;32978;53.586;10.052;2023-07-13T12:43:36;11.85;;;10.52;;
47239;SDS011;32978;53.586;10.052;2023-07-13T12:48:42;11.50;;;10.55;;
47239;SDS011;32978;53.586;10.052;2023-07-13T12:53:57;10.90;;;9.55;;
47239;SDS011;32978;53.586;10.052;2023-07-13T12:58:58;13.00;;;8.75;;
47239;SDS011;32978;53.586;10.052;2023-07-13T13:04:00;11.98;;;10.98;;
47239;SDS011;32978;53.586;10.052;2023-07-13T13:13:58;9.45;;;8.48;;
47239;SDS011;32978;53.586;10.052;2023-07-13T13:24:13;9.18;;;8.38;;
47239;SDS011;32978;53.586;10.052;2023-07-13T13:29:14;7.45;;;6.85;;
47239;SDS011;32978;53.586;10.052;2023-07-13T13:34:16;10.93;;;7.25;;
47239;SDS011;32978;53.586;10.052;2023-07-13T13:39:20;9.55;;;8.65;;
47239;SDS011;32978;53.586;10.052;2023-07-13T13:44:20;7.30;;;6.68;;
47239;SDS011;32978;53.586;10.052;2023-07-13T13:49:25;9.50;;;8.60;;
47239;SDS011;32978;53.586;10.052;2023-07-13T13:54:23;9.82;;;7.28;;
47239;SDS011;32978;53.586;10.052;2023-07-13T13:59:25;11.05;;;7.13;;
47239;SDS011;32978;53.586;10.052;2023-07-13T14:04:25;7.38;;;6.60;;
47239;SDS011;32978;53.586;10.052;2023-07-13T14:09:26;5.97;;;5.40;;
47239;SDS011;32978;53.586;10.052;2023-07-13T14:14:23;7.65;;;5.18;;
47239;SDS011;32978;53.586;10.052;2023-07-13T14:19:26;7.13;;;5.85;;
47239;SDS011;32978;53.586;10.052;2023-07-13T14:24:24;7.13;;;6.43;;
47239;SDS011;32978;53.586;10.052;2023-07-13T14:29:23;6.22;;;4.85;;
47239;SDS011;32978;53.586;10.052;2023-07-13T14:34:22;5.82;;;5.22;;
47239;SDS011;32978;53.586;10.052;2023-07-13T14:39:24;7.97;;;5.70;;
47239;SDS011;32978;53.586;10.052;2023-07-13T14:44:23;11.48;;;6.25;;
47239;SDS011;32978;53.586;10.052;2023-07-13T14:49:34;6.22;;;5.63;;
47239;SDS011;32978;53.586;10.052;2023-07-13T14:54:31;6.95;;;5.93;;
47239;SDS011;32978;53.586;10.052;2023-07-13T14:59:28;7.18;;;6.18;;
47239;SDS011;32978;53.586;10.052;2023-07-13T15:04:25;6.60;;;5.93;;
47239;SDS011;32978;53.586;10.052;2023-07-13T15:09:24;7.20;;;6.50;;
47239;SDS011;32978;53.586;10.052;2023-07-13T15:14:26;7.40;;;6.10;;
47239;SDS011;32978;53.586;10.052;2023-07-13T15:19:30;7.67;;;6.97;;
47239;SDS011;32978;53.586;10.052;2023-07-13T15:24:30;7.28;;;6.32;;
47239;SDS011;32978;53.586;10.052;2023-07-13T15:29:29;6.70;;;6.10;;
47239;SDS011;32978;53.586;10.052;2023-07-13T15:34:29;6.68;;;5.75;;
47239;SDS011;32978;53.586;10.052;2023-07-13T15:39:27;8.73;;;6.85;;
47239;SDS011;32978;53.586;10.052;2023-07-13T15:44:25;5.78;;;5.28;;
47239;SDS011;32978;53.586;10.052;2023-07-13T15:49:25;6.82;;;6.22;;
47239;SDS011;32978;53.586;10.052;2023-07-13T15:54:22;6.55;;;5.70;;
47239;SDS011;32978;53.586;10.052;2023-07-13T15:59:19;6.65;;;5.90;;
47239;SDS011;32978;53.586;10.052;2023-07-13T16:04:21;6.75;;;6.05;;
47239;SDS011;32978;53.586;10.052;2023-07-13T16:09:24;7.40;;;5.55;;
47239;SDS011;32978;53.586;10.052;2023-07-13T16:14:25;6.30;;;5.60;;
47239;SDS011;32978;53.586;10.052;2023-07-13T16:19:26;6.65;;;5.35;;
47239;SDS011;32978;53.586;10.052;2023-07-13T16:24:28;6.88;;;5.40;;
47239;SDS011;32978;53.586;10.052;2023-07-13T16:29:28;6.10;;;5.45;;
47239;SDS011;32978;53.586;10.052;2023-07-13T16:34:26;5.68;;;5.22;;
47239;SDS011;32978;53.586;10.052;2023-07-13T16:39:26;5.75;;;5.25;;
47239;SDS011;32978;53.586;10.052;2023-07-13T16:44:29;7.40;;;6.70;;
47239;SDS011;32978;53.586;10.052;2023-07-13T16:49:29;5.70;;;5.10;;
47239;SDS011;32978;53.586;10.052;2023-07-13T16:54:35;7.05;;;5.07;;
47239;SDS011;32978;53.586;10.052;2023-07-13T16:59:33;5.65;;;5.00;;
47239;SDS011;32978;53.586;10.052;2023-07-13T17:04:34;6.47;;;4.82;;
47239;SDS011;32978;53.586;10.052;2023-07-13T17:09:37;5.35;;;4.85;;
47239;SDS011;32978;53.586;10.052;2023-07-13T17:14:40;6.18;;;5.50;;
47239;SDS011;32978;53.586;10.052;2023-07-13T17:19:40;9.88;;;5.78;;
47239;SDS011;32978;53.586;10.052;2023-07-13T17:24:40;6.15;;;5.07;;
47239;SDS011;32978;53.586;10.052;2023-07-13T17:29:40;6.30;;;5.15;;
47239;SDS011;32978;53.586;10.052;2023-07-13T17:34:38;5.30;;;4.68;;
47239;SDS011;32978;53.586;10.052;2023-07-13T17:39:44;5.78;;;5.03;;
47239;SDS011;32978;53.586;10.052;2023-07-13T17:44:44;5.50;;;5.00;;
47239;SDS011;32978;53.586;10.052;2023-07-13T17:49:41;6.10;;;5.32;;
47239;SDS011;32978;53.586;10.052;2023-07-13T17:54:43;5.82;;;5.22;;
47239;SDS011;32978;53.586;10.052;2023-07-13T17:59:42;5.95;;;5.20;;
47239;SDS011;32978;53.586;10.052;2023-07-13T18:04:46;6.90;;;5.25;;
47239;SDS011;32978;53.586;10.052;2023-07-13T18:09:43;9.30;;;6.10;;
47239;SDS011;32978;53.586;10.052;2023-07-13T18:14:45;25.33;;;18.17;;
47239;SDS011;32978;53.586;10.052;2023-07-13T18:19:44;6.72;;;5.00;;
47239;SDS011;32978;53.586;10.052;2023-07-13T18:24:44;6.10;;;5.55;;
47239;SDS011;32978;53.586;10.052;2023-07-13T18:29:47;5.70;;;5.20;;
47239;SDS011;32978;53.586;10.052;2023-07-13T18:34:49;5.53;;;5.03;;
47239;SDS011;32978;53.586;10.052;2023-07-13T18:44:48;7.43;;;5.82;;
47239;SDS011;32978;53.586;10.052;2023-07-13T18:49:45;5.75;;;5.22;;
47239;SDS011;32978;53.586;10.052;2023-07-13T18:54:43;9.35;;;4.90;;
47239;SDS011;32978;53.586;10.052;2023-07-13T18:59:42;8.93;;;5.30;;
47239;SDS011;32978;53.586;10.052;2023-07-13T19:04:41;5.93;;;5.32;;
47239;SDS011;32978;53.586;10.052;2023-07-13T19:09:38;11.40;;;5.88;;
47239;SDS011;32978;53.586;10.052;2023-07-13T19:14:40;7.00;;;5.65;;
47239;SDS011;32978;53.586;10.052;2023-07-13T19:19:47;6.15;;;5.18;;
47239;SDS011;32978;53.586;10.052;2023-07-13T19:24:44;6.57;;;5.88;;
47239;SDS011;32978;53.586;10.052;2023-07-13T19:29:42;6.38;;;5.70;;
47239;SDS011;32978;53.586;10.052;2023-07-13T19:34:42;6.95;;;5.57;;
47239;SDS011;32978;53.586;10.052;2023-07-13T19:39:42;7.57;;;6.20;;
47239;SDS011;32978;53.586;10.052;2023-07-13T19:44:44;6.20;;;5.60;;
47239;SDS011;32978;53.586;10.052;2023-07-13T19:49:41;6.78;;;5.70;;
47239;SDS011;32978;53.586;10.052;2023-07-13T19:54:39;6.85;;;5.93;;
47239;SDS011;32978;53.586;10.052;2023-07-13T19:59:39;7.47;;;5.90;;
47239;SDS011;32978;53.586;10.052;2023-07-13T20:04:41;5.85;;;5.35;;
47239;SDS011;32978;53.586;10.052;2023-07-13T20:09:44;7.38;;;5.85;;
47239;SDS011;32978;53.586;10.052;2023-07-13T20:14:45;6.87;;;6.17;;
47239;SDS011;32978;53.586;10.052;2023-07-13T20:19:46;6.05;;;5.50;;
47239;SDS011;32978;53.586;10.052;2023-07-13T20:24:46;6.90;;;6.18;;
47239;SDS011;32978;53.586;10.052;2023-07-13T20:29:51;6.70;;;6.00;;
47239;SDS011;32978;53.586;10.052;2023-07-13T20:34:51;6.50;;;5.80;;
47239;SDS011;32978;53.586;10.052;2023-07-13T20:39:48;5.97;;;5.38;;
47239;SDS011;32978;53.586;10.052;2023-07-13T20:44:55;6.57;;;6.03;;
47239;SDS011;32978;53.586;10.052;2023-07-13T20:49:54;5.68;;;5.18;;
47239;SDS011;32978;53.586;10.052;2023-07-13T20:54:56;5.43;;;4.93;;
47239;SDS011;32978;53.586;10.052;2023-07-13T20:59:53;5.57;;;5.13;;
47239;SDS011;32978;53.586;10.052;2023-07-13T21:04:50;5.80;;;5.30;;
47239;SDS011;32978;53.586;10.052;2023-07-13T21:09:55;6.47;;;5.82;;
47239;SDS011;32978;53.586;10.052;2023-07-13T21:14:52;6.22;;;5.55;;
47239;SDS011;32978;53.586;10.052;2023-07-13T21:19:49;5.88;;;5.30;;
47239;SDS011;32978;53.586;10.052;2023-07-13T21:24:51;6.40;;;5.38;;
47239;SDS011;32978;53.586;10.052;2023-07-13T21:29:53;7.10;;;5.57;;
47239;SDS011;32978;53.586;10.052;2023-07-13T21:34:55;8.05;;;6.00;;
47239;SDS011;32978;53.586;10.052;2023-07-13T21:40:02;7.28;;;6.43;;
47239;SDS011;32978;53.586;10.052;2023-07-13T21:45:01;7.22;;;6.00;;
47239;SDS011;32978;53.586;10.052;2023-07-13T21:50:00;6.75;;;6.03;;
47239;SDS011;32978;53.586;10.052;2023-07-13T21:54:57;6.47;;;5.85;;
47239;SDS011;32978;53.586;10.052;2023-07-13T21:59:54;8.05;;;6.43;;
47239;SDS011;32978;53.586;10.052;2023-07-13T22:04:51;6.47;;;5.88;;
47239;SDS011;32978;53.586;10.052;2023-07-13T22:09:54;7.10;;;6.40;;
47239;SDS011;32978;53.586;10.052;2023-07-13T22:14:54;7.60;;;6.32;;
47239;SDS011;32978;53.586;10.052;2023-07-13T22:19:56;10.85;;;6.93;;
47239;SDS011;32978;53.586;10.052;2023-07-13T22:24:53;8.13;;;6.63;;
47239;SDS011;32978;53.586;10.052;2023-07-13T22:29:54;8.10;;;7.30;;
47239;SDS011;32978;53.586;10.052;2023-07-13T22:34:57;9.85;;;6.80;;
47239;SDS011;32978;53.586;10.052;2023-07-13T22:39:58;8.13;;;7.43;;
47239;SDS011;32978;53.586;10.052;2023-07-13T22:45:02;7.70;;;7.00;;
47239;SDS011;32978;53.586;10.052;2023-07-13T22:54:59;8.05;;;7.32;;
47239;SDS011;32978;53.586;10.052;2023-07-13T22:59:55;8.52;;;7.55;;
47239;SDS011;32978;53.586;10.052;2023-07-13T23:04:56;8.40;;;7.32;;
47239;SDS011;32978;53.586;10.052;2023-07-13T23:09:54;9.07;;;7.50;;
47239;SDS011;32978;53.586;10.052;2023-07-13T23:15:09;8.50;;;7.65;;
47239;SDS011;32978;53.586;10.052;2023-07-13T23:20:21;8.85;;;7.95;;
47239;SDS011;32978;53.586;10.052;2023-07-13T23:25:30;9.15;;;8.30;;
47239;SDS011;32978;53.586;10.052;2023-07-13T23:30:33;10.10;;;8.45;;
47239;SDS011;32978;53.586;10.052;2023-07-13T23:35:33;11.50;;;9.55;;
47239;SDS011;32978;53.586;10.052;2023-07-13T23:40:33;11.15;;;8.68;;
47239;SDS011;32978;53.586;10.052;2023-07-13T23:45:33;9.05;;;8.18;;
47239;SDS011;32978;53.586;10.052;2023-07-13T23:50:31;9.18;;;8.15;;
47239;SDS011;32978;53.586;10.052;2023-07-13T23:55:33;10.07;;;8.93;;
